Time;durP1;ratioP1;P1;durP2;ratioP2;P2;SDS_P1;SDS_P2;PMS_P1;PMS_P2;Temp;Humidity;BMP_temperature;BMP_pressure;BME280_temperature;BME280_humidity;BME280_pressure;Samples;Min_cycle;Max_cycle;Signal;HPM_P1;HPM_P2
2024/01/09 00:01:56;;;;;;;8.88;5.88;;;-2.60;99.90;;;;;;7374519;19;20022;-66
2024/01/09 00:04:22;;;;;;;9.90;5.05;;;-2.50;99.90;;;;;;7372016;19;20018;-66
2024/01/09 00:06:49;;;;;;;10.32;5.22;;;-2.60;99.90;;;;;;7375280;19;20030;-66
2024/01/09 00:09:15;;;;;;;9.50;5.45;;;-2.60;99.90;;;;;;7372840;19;20123;-66
2024/01/09 00:11:41;;;;;;;9.50;5.18;;;-2.60;99.90;;;;;;7376050;19;20014;-67
2024/01/09 00:14:08;;;;;;;8.65;4.95;;;-2.60;99.90;;;;;;7375303;19;20616;-71
2024/01/09 00:16:34;;;;;;;12.30;6.28;;;-2.70;99.90;;;;;;7373676;19;20482;-66
2024/01/09 00:19:00;;;;;;;7.93;5.22;;;-2.70;99.90;;;;;;7371680;19;20418;-66
2024/01/09 00:21:26;;;;;;;7.95;3.92;;;-2.70;99.90;;;;;;7373489;19;20113;-66
2024/01/09 00:23:52;;;;;;;8.43;5.57;;;-2.70;99.90;;;;;;7376668;19;20014;-72
2024/01/09 00:26:42;;;;;;;12.38;6.43;;;-2.70;99.90;;;;;;7374247;19;20801;-71
2024/01/09 00:29:10;;;;;;;8.02;5.22;;;-2.80;99.90;;;;;;7378322;19;20022;-71
2024/01/09 00:31:36;;;;;;;9.80;4.13;;;-2.80;99.90;;;;;;7374194;19;20038;-71
2024/01/09 00:34:03;;;;;;;7.30;4.88;;;-2.80;99.90;;;;;;7375156;19;20090;-71
2024/01/09 00:36:29;;;;;;;8.48;4.45;;;-2.80;99.90;;;;;;7373015;19;20498;-71
2024/01/09 00:38:55;;;;;;;7.65;4.63;;;-2.80;99.90;;;;;;7381179;19;20011;-72
2024/01/09 00:41:21;;;;;;;8.68;4.95;;;-2.80;99.90;;;;;;7380956;19;20457;-69
2024/01/09 00:43:47;;;;;;;7.25;4.72;;;-2.90;99.90;;;;;;7380299;19;20074;-71
2024/01/09 00:46:14;;;;;;;6.97;4.50;;;-2.90;99.90;;;;;;7384460;19;20019;-71
2024/01/09 00:48:40;;;;;;;8.20;4.75;;;-2.90;99.90;;;;;;7383715;19;20022;-71
2024/01/09 00:51:06;;;;;;;7.10;4.30;;;-2.90;99.90;;;;;;7385365;19;20707;-71
2024/01/09 00:53:32;;;;;;;7.03;4.68;;;-2.90;99.90;;;;;;7383726;19;20388;-71
2024/01/09 00:55:59;;;;;;;8.88;5.25;;;-2.90;99.90;;;;;;7382366;19;20019;-71
2024/01/09 00:58:25;;;;;;;8.77;4.90;;;-3.00;99.90;;;;;;7383129;19;20046;-71
2024/01/09 01:00:51;;;;;;;8.85;4.22;;;-3.00;99.90;;;;;;7381860;19;20053;-70
2024/01/09 01:03:17;;;;;;;6.30;4.60;;;-3.00;99.90;;;;;;7380981;19;20087;-70
2024/01/09 01:05:43;;;;;;;7.82;4.57;;;-3.00;99.90;;;;;;7381862;19;20014;-65
2024/01/09 01:08:09;;;;;;;7.90;5.15;;;-3.10;99.90;;;;;;7379273;19;20025;-65
2024/01/09 01:10:36;;;;;;;7.40;4.53;;;-3.00;99.90;;;;;;7378795;19;20090;-65
2024/01/09 01:13:02;;;;;;;8.18;3.50;;;-3.10;99.90;;;;;;7379737;19;20019;-71
2024/01/09 01:15:28;;;;;;;9.10;4.80;;;-3.10;99.90;;;;;;7380290;19;20019;-70
2024/01/09 01:17:54;;;;;;;8.75;4.65;;;-3.10;99.90;;;;;;7379810;19;20051;-70
2024/01/09 01:20:21;;;;;;;7.25;4.35;;;-3.10;99.90;;;;;;7380579;19;20019;-70
2024/01/09 01:22:47;;;;;;;8.38;4.60;;;-3.10;99.90;;;;;;7380828;19;20799;-70
2024/01/09 01:25:13;;;;;;;7.88;4.63;;;-3.10;99.90;;;;;;7378451;19;20094;-70
2024/01/09 01:27:39;;;;;;;8.65;4.93;;;-3.20;99.90;;;;;;7382407;19;20015;-70
2024/01/09 01:30:07;;;;;;;7.78;4.20;;;-3.20;99.90;;;;;;7381680;19;20021;-70
2024/01/09 01:32:33;;;;;;;9.63;3.65;;;-3.20;99.90;;;;;;7379424;19;20021;-65
2024/01/09 01:34:59;;;;;;;8.13;4.47;;;-3.20;99.90;;;;;;7381036;19;20058;-71
2024/01/09 01:37:25;;;;;;;8.75;4.03;;;-3.20;99.90;;;;;;7373292;19;20022;-70
2024/01/09 01:39:52;;;;;;;7.05;4.40;;;-3.20;99.90;;;;;;7381441;19;20086;-71
2024/01/09 01:42:21;;;;;;;9.45;5.07;;;-3.20;99.90;;;;;;7384387;19;20034;-71
2024/01/09 01:44:47;;;;;;;6.22;3.50;;;-3.20;99.90;;;;;;7379630;19;20425;-70
2024/01/09 01:47:14;;;;;;;7.55;3.75;;;-3.20;99.90;;;;;;7383230;19;20090;-70
2024/01/09 01:49:41;;;;;;;8.90;4.93;;;-3.20;99.90;;;;;;7375225;19;20029;-65
2024/01/09 01:52:08;;;;;;;6.97;4.03;;;-3.20;99.90;;;;;;7379603;19;20022;-64
2024/01/09 01:54:37;;;;;;;6.70;4.00;;;-3.20;99.90;;;;;;7376649;19;20438;-65
2024/01/09 01:57:04;;;;;;;7.03;4.18;;;-3.30;99.90;;;;;;7378137;19;20026;-65
2024/01/09 01:59:34;;;;;;;8.10;3.92;;;-3.30;99.90;;;;;;7379686;19;20485;-70
2024/01/09 02:02:03;;;;;;;6.68;4.22;;;-3.30;99.90;;;;;;7380928;19;20015;-70
2024/01/09 02:04:29;;;;;;;7.18;4.10;;;-3.30;99.90;;;;;;7378228;19;20086;-70
2024/01/09 02:06:56;;;;;;;6.22;4.28;;;-3.30;99.90;;;;;;7378325;19;20025;-65
2024/01/09 02:09:23;;;;;;;7.28;4.25;;;-3.30;99.90;;;;;;7377758;19;20022;-64
2024/01/09 02:11:50;;;;;;;9.43;4.60;;;-3.30;99.90;;;;;;7377153;19;20474;-64
2024/01/09 02:14:16;;;;;;;8.00;4.00;;;-3.40;99.90;;;;;;7373665;19;20613;-64
2024/01/09 02:16:42;;;;;;;7.22;3.92;;;-3.40;99.90;;;;;;7378345;19;20538;-64
2024/01/09 02:19:14;;;;;;;;;;;-3.40;99.90;;;;;;7374304;19;20022;-65
2024/01/09 02:21:42;;;;;;;7.15;4.40;;;-3.30;99.90;;;;;;7379264;19;19923;-64
2024/01/09 02:24:08;;;;;;;8.48;4.05;;;-3.40;99.90;;;;;;7375649;19;20022;-64
2024/01/09 02:26:37;;;;;;;8.15;3.63;;;-3.40;99.90;;;;;;7378483;19;20015;-64
2024/01/09 02:29:08;;;;;;;7.13;4.63;;;-3.40;99.90;;;;;;7377209;19;20103;-64
2024/01/09 02:31:35;;;;;;;8.50;3.65;;;-3.40;99.90;;;;;;7377714;19;20022;-64
2024/01/09 02:34:03;;;;;;;6.65;4.18;;;-3.40;99.90;;;;;;7378879;19;20029;-64
2024/01/09 02:36:29;;;;;;;7.45;4.05;;;-3.40;99.90;;;;;;7380182;19;20018;-63
2024/01/09 02:38:56;;;;;;;11.68;4.88;;;-3.40;99.90;;;;;;7373842;19;20027;-64
2024/01/09 02:41:22;;;;;;;8.52;4.30;;;-3.40;99.90;;;;;;7375290;19;20022;-64
2024/01/09 02:43:48;;;;;;;6.72;4.38;;;-3.40;99.90;;;;;;7367622;19;20042;-64
2024/01/09 02:46:14;;;;;;;7.07;3.55;;;-3.50;99.90;;;;;;7371996;19;20043;-63
2024/01/09 02:48:41;;;;;;;8.98;4.75;;;-3.50;99.90;;;;;;7375869;19;20018;-64
2024/01/09 02:51:07;;;;;;;7.20;3.88;;;-3.50;99.90;;;;;;7375121;19;20047;-64
2024/01/09 02:53:33;;;;;;;7.57;4.60;;;-3.50;99.90;;;;;;7376397;19;20018;-64
2024/01/09 02:55:59;;;;;;;6.47;4.00;;;-3.50;99.90;;;;;;7374147;19;20039;-64
2024/01/09 02:58:25;;;;;;;7.97;4.32;;;-3.50;99.90;;;;;;7374222;19;20018;-64
2024/01/09 03:00:52;;;;;;;9.93;4.85;;;-3.50;99.90;;;;;;7371544;19;20018;-64
2024/01/09 03:03:18;;;;;;;7.50;4.32;;;-3.50;99.90;;;;;;7373701;19;20496;-63
2024/01/09 03:05:44;;;;;;;10.50;4.45;;;-3.60;99.90;;;;;;7373332;19;20026;-63
2024/01/09 03:08:10;;;;;;;9.68;4.93;;;-3.60;99.90;;;;;;7377827;19;20011;-63
2024/01/09 03:10:36;;;;;;;6.60;4.60;;;-3.60;99.90;;;;;;7373839;19;20030;-64
2024/01/09 03:13:03;;;;;;;8.20;4.50;;;-3.60;99.90;;;;;;7368689;19;20035;-63
2024/01/09 03:15:30;;;;;;;8.48;4.25;;;-3.60;99.90;;;;;;7376360;19;20026;-63
2024/01/09 03:18:03;;;;;;;7.03;4.47;;;-3.60;99.90;;;;;;7369824;19;20022;-63
2024/01/09 03:20:29;;;;;;;11.85;4.93;;;-3.60;99.90;;;;;;7372241;19;20007;-63
2024/01/09 03:22:56;;;;;;;8.35;3.85;;;-3.60;99.90;;;;;;7373003;19;20038;-63
2024/01/09 03:25:26;;;;;;;7.75;4.75;;;-3.60;99.90;;;;;;7375275;19;20019;-63
2024/01/09 03:27:55;;;;;;;8.93;4.22;;;-3.60;99.90;;;;;;7375912;19;20110;-63
2024/01/09 03:30:22;;;;;;;8.05;4.47;;;-3.70;99.90;;;;;;7374719;19;20687;-70
2024/01/09 03:32:49;;;;;;;6.25;3.25;;;-3.70;99.90;;;;;;7371436;19;20014;-63
2024/01/09 03:35:16;;;;;;;9.57;4.45;;;-3.70;99.90;;;;;;7369673;19;20022;-69
2024/01/09 03:37:42;;;;;;;8.60;3.58;;;-3.70;99.90;;;;;;7374761;19;20022;-69
2024/01/09 03:40:09;;;;;;;9.50;4.25;;;-3.70;99.90;;;;;;7377406;19;20007;-69
2024/01/09 03:42:55;;;;;;;7.30;4.70;;;-3.70;99.90;;;;;;7371496;19;20015;-69
2024/01/09 03:45:22;;;;;;;8.43;4.55;;;-3.70;99.90;;;;;;7373358;19;20014;-69
2024/01/09 03:47:48;;;;;;;7.20;4.72;;;-3.70;99.90;;;;;;7376412;19;20019;-69
2024/01/09 03:50:14;;;;;;;7.72;4.43;;;-3.80;99.90;;;;;;7371873;19;21911;-69
2024/01/09 03:52:40;;;;;;;7.55;4.30;;;-3.70;99.90;;;;;;7369764;19;20022;-62
2024/01/09 03:55:26;;;;;;;8.10;3.88;;;-3.80;99.90;;;;;;7375202;19;20023;-63
2024/01/09 03:57:53;;;;;;;6.32;3.47;;;-3.80;99.90;;;;;;7373250;19;20030;-62
2024/01/09 04:00:19;;;;;;;7.97;3.85;;;-3.80;99.90;;;;;;7371948;19;20026;-62
2024/01/09 04:02:45;;;;;;;5.57;3.15;;;-3.80;99.90;;;;;;7369098;19;20030;-62
2024/01/09 04:05:11;;;;;;;7.40;3.70;;;-3.80;99.90;;;;;;7372026;19;20086;-69
2024/01/09 04:07:38;;;;;;;5.78;3.22;;;-3.80;99.90;;;;;;7373331;19;20010;-69
2024/01/09 04:10:04;;;;;;;6.10;3.97;;;-3.80;99.90;;;;;;7373395;19;20022;-69
2024/01/09 04:12:30;;;;;;;6.28;3.72;;;-3.80;99.90;;;;;;7370123;19;20496;-69
2024/01/09 04:14:57;;;;;;;5.00;3.38;;;-3.80;99.90;;;;;;7371286;19;20028;-68
2024/01/09 04:17:23;;;;;;;11.88;4.82;;;-3.80;99.90;;;;;;7368630;19;20774;-69
2024/01/09 04:19:49;;;;;;;6.72;3.40;;;-3.80;99.90;;;;;;7365220;19;20385;-69
2024/01/09 04:22:16;;;;;;;5.68;3.90;;;-3.80;99.90;;;;;;7370730;19;20059;-68
2024/01/09 04:24:42;;;;;;;5.78;3.40;;;-3.80;99.90;;;;;;7368699;19;20035;-69
2024/01/09 04:27:08;;;;;;;7.50;4.22;;;-3.90;99.90;;;;;;7368162;19;20504;-62
2024/01/09 04:29:35;;;;;;;8.32;3.78;;;-3.90;99.90;;;;;;7373552;19;20032;-62
2024/01/09 04:32:07;;;;;;;6.68;3.58;;;-3.80;99.90;;;;;;7369355;19;20011;-62
2024/01/09 04:34:36;;;;;;;6.30;3.67;;;-3.90;99.90;;;;;;7369295;19;20476;-62
2024/01/09 04:37:03;;;;;;;5.20;3.78;;;-3.90;99.90;;;;;;7366967;19;20030;-62
2024/01/09 04:39:29;;;;;;;8.85;3.38;;;-3.90;99.90;;;;;;7370488;19;20109;-62
2024/01/09 04:41:56;;;;;;;8.13;4.25;;;-3.90;99.90;;;;;;7369544;19;20082;-62
2024/01/09 04:44:22;;;;;;;5.90;3.45;;;-3.90;99.90;;;;;;7362123;19;20849;-62
2024/01/09 04:46:49;;;;;;;5.88;3.58;;;-4.00;99.90;;;;;;7368149;19;20097;-62
2024/01/09 04:49:15;;;;;;;7.82;3.10;;;-4.00;99.90;;;;;;7368550;19;20014;-62
2024/01/09 04:51:42;;;;;;;6.63;3.45;;;-4.00;99.90;;;;;;7360526;19;20049;-68
2024/01/09 04:54:08;;;;;;;9.82;4.03;;;-4.00;99.90;;;;;;7368802;19;20021;-62
2024/01/09 04:56:34;;;;;;;5.68;3.88;;;-4.00;99.90;;;;;;7358743;19;20019;-62
2024/01/09 04:59:01;;;;;;;7.43;3.85;;;-4.00;99.90;;;;;;7369789;19;20014;-62
2024/01/09 05:01:29;;;;;;;6.97;4.25;;;-4.00;99.90;;;;;;7365594;19;20025;-62
2024/01/09 05:03:55;;;;;;;7.10;4.15;;;-4.00;99.90;;;;;;7362896;19;20019;-62
2024/01/09 05:06:22;;;;;;;5.03;3.03;;;-4.00;99.90;;;;;;7371684;19;20023;-61
2024/01/09 05:08:48;;;;;;;7.38;3.65;;;-4.10;99.90;;;;;;7364816;19;20014;-63
2024/01/09 05:11:14;;;;;;;4.63;2.97;;;-4.00;99.90;;;;;;7367812;19;20018;-61
2024/01/09 05:13:40;;;;;;;6.45;3.28;;;-4.10;99.90;;;;;;7369077;19;20726;-67
2024/01/09 05:16:07;;;;;;;7.28;3.67;;;-4.10;99.90;;;;;;7366207;19;20023;-67
2024/01/09 05:18:34;;;;;;;6.50;3.70;;;-4.10;99.90;;;;;;7371632;19;20018;-67
2024/01/09 05:21:00;;;;;;;8.32;3.95;;;-4.10;99.90;;;;;;7361771;19;20082;-67
2024/01/09 05:23:26;;;;;;;7.07;3.78;;;-4.10;99.90;;;;;;7370616;19;20642;-68
2024/01/09 05:25:52;;;;;;;6.50;3.58;;;-4.10;99.90;;;;;;7373757;19;20015;-69
2024/01/09 05:28:19;;;;;;;8.57;4.28;;;-4.10;99.90;;;;;;7377449;19;20720;-63
2024/01/09 05:30:45;;;;;;;6.10;4.07;;;-4.10;99.90;;;;;;7375347;19;20031;-62
2024/01/09 05:33:12;;;;;;;7.88;4.05;;;-4.20;99.90;;;;;;7374888;19;20019;-62
2024/01/09 05:35:39;;;;;;;6.78;3.97;;;-4.20;99.90;;;;;;7379363;19;20026;-63
2024/01/09 05:38:05;;;;;;;6.72;3.63;;;-4.20;99.90;;;;;;7379639;19;20089;-61
2024/01/09 05:40:32;;;;;;;6.13;3.67;;;-4.20;99.90;;;;;;7379363;19;20018;-62
2024/01/09 05:43:18;;;;;;;6.53;3.95;;;-4.20;99.90;;;;;;7376280;19;20014;-63
2024/01/09 05:45:45;;;;;;;7.40;3.95;;;-4.20;99.90;;;;;;7372978;19;20470;-63
2024/01/09 05:48:11;;;;;;;6.75;3.85;;;-4.20;99.90;;;;;;7381952;19;20086;-63
2024/01/09 05:50:37;;;;;;;6.35;3.58;;;-4.20;99.90;;;;;;7377984;19;20336;-63
2024/01/09 05:53:04;;;;;;;6.28;3.58;;;-4.30;99.90;;;;;;7378843;19;21155;-63
2024/01/09 05:55:30;;;;;;;6.70;3.15;;;-4.30;99.90;;;;;;7378131;19;20015;-62
2024/01/09 05:57:57;;;;;;;7.20;3.85;;;-4.30;99.90;;;;;;7380226;19;20642;-62
2024/01/09 06:00:24;;;;;;;6.57;3.83;;;-4.30;99.90;;;;;;7375361;19;20089;-62
2024/01/09 06:02:51;;;;;;;5.88;3.60;;;-4.30;99.90;;;;;;7375614;19;20082;-68
2024/01/09 06:05:17;;;;;;;7.18;4.20;;;-4.30;99.90;;;;;;7373682;19;20026;-67
2024/01/09 06:07:43;;;;;;;7.63;3.67;;;-4.30;99.90;;;;;;7374436;19;20110;-67
2024/01/09 06:10:12;;;;;;;6.38;3.78;;;-4.30;99.90;;;;;;7374282;19;20015;-67
2024/01/09 06:12:38;;;;;;;7.88;4.25;;;-4.30;99.90;;;;;;7373243;19;20018;-68
2024/01/09 06:15:05;;;;;;;6.38;4.32;;;-4.30;99.90;;;;;;7372999;19;20025;-66
2024/01/09 06:17:31;;;;;;;6.30;3.85;;;-4.30;99.90;;;;;;7371529;19;20014;-67
2024/01/09 06:20:00;;;;;;;9.93;5.13;;;-4.40;99.90;;;;;;7372502;19;20543;-66
2024/01/09 06:22:26;;;;;;;10.32;5.13;;;-4.40;99.90;;;;;;7366430;19;20033;-66
2024/01/09 06:24:52;;;;;;;9.15;4.80;;;-4.40;99.90;;;;;;7374810;19;20042;-67
2024/01/09 06:27:19;;;;;;;8.60;3.85;;;-4.40;99.90;;;;;;7376013;19;20460;-66
2024/01/09 06:29:45;;;;;;;9.95;4.50;;;-4.40;99.90;;;;;;7376282;19;20020;-66
2024/01/09 06:32:11;;;;;;;8.30;5.43;;;-4.50;99.90;;;;;;7374230;19;20034;-66
2024/01/09 06:34:37;;;;;;;7.55;4.65;;;-4.50;99.90;;;;;;7377887;19;20380;-67
2024/01/09 06:37:04;;;;;;;8.73;4.50;;;-4.50;99.90;;;;;;7374645;19;20070;-66
2024/01/09 06:39:30;;;;;;;8.63;4.68;;;-4.50;99.90;;;;;;7375800;19;20074;-67
2024/01/09 06:41:57;;;;;;;6.18;4.22;;;-4.50;99.90;;;;;;7374695;19;20133;-66
2024/01/09 06:44:25;;;;;;;6.45;3.83;;;-4.50;99.90;;;;;;7377015;19;20478;-58
2024/01/09 06:46:51;;;;;;;9.65;4.93;;;-4.60;99.90;;;;;;7376224;19;20403;-64
2024/01/09 06:49:18;;;;;;;8.80;4.10;;;-4.50;99.90;;;;;;7378730;19;20351;-66
2024/01/09 06:51:44;;;;;;;11.18;7.15;;;-4.60;99.90;;;;;;7375079;19;20014;-66
2024/01/09 06:54:10;;;;;;;6.47;4.05;;;-4.60;99.90;;;;;;7379596;19;20006;-66
2024/01/09 06:56:56;;;;;;;8.55;4.20;;;-4.60;99.90;;;;;;7378087;19;20018;-61
2024/01/09 06:59:22;;;;;;;14.18;7.00;;;-4.60;99.90;;;;;;7372749;19;20018;-61
2024/01/09 07:01:49;;;;;;;7.68;4.35;;;-4.60;99.90;;;;;;7376485;19;20018;-61
2024/01/09 07:04:15;;;;;;;8.80;3.85;;;-4.60;99.90;;;;;;7374864;19;20015;-61
2024/01/09 07:06:41;;;;;;;7.30;3.40;;;-4.70;99.90;;;;;;7376566;19;20088;-61
2024/01/09 07:09:08;;;;;;;8.18;4.97;;;-4.70;99.90;;;;;;7372866;19;20493;-68
2024/01/09 07:11:34;;;;;;;10.20;5.35;;;-4.70;99.90;;;;;;7376468;19;20018;-69
2024/01/09 07:14:00;;;;;;;8.73;4.97;;;-4.70;99.90;;;;;;7374106;19;20010;-65
2024/01/09 07:16:27;;;;;;;10.05;5.60;;;-4.70;99.90;;;;;;7376820;19;20039;-65
2024/01/09 07:18:53;;;;;;;8.70;4.90;;;-4.60;99.90;;;;;;7374037;19;20019;-61
2024/01/09 07:21:19;;;;;;;12.77;6.68;;;-4.70;99.90;;;;;;7374015;19;20023;-61
2024/01/09 07:23:46;;;;;;;6.53;3.95;;;-4.70;99.90;;;;;;7375965;19;20400;-61
2024/01/09 07:26:13;;;;;;;7.80;4.20;;;-4.70;99.90;;;;;;7374768;19;20146;-61
2024/01/09 07:28:41;;;;;;;6.82;4.65;;;-4.70;99.90;;;;;;7375680;19;20647;-61
2024/01/09 07:31:09;;;;;;;6.43;3.63;;;-4.70;99.90;;;;;;7377580;19;20018;-60
2024/01/09 07:33:35;;;;;;;8.02;4.60;;;-4.70;99.90;;;;;;7374372;19;20022;-61
2024/01/09 07:36:02;;;;;;;7.25;4.40;;;-4.80;99.90;;;;;;7376259;19;20013;-61
2024/01/09 07:38:29;;;;;;;8.32;4.75;;;-4.80;99.90;;;;;;7373490;19;20014;-61
2024/01/09 07:40:55;;;;;;;6.82;5.00;;;-4.70;99.90;;;;;;7376527;19;20093;-60
2024/01/09 07:43:21;;;;;;;7.60;4.20;;;-4.80;99.90;;;;;;7373459;19;20026;-61
2024/01/09 07:45:48;;;;;;;6.35;4.25;;;-4.80;99.90;;;;;;7372383;19;20014;-60
2024/01/09 07:48:14;;;;;;;8.75;5.47;;;-4.80;99.90;;;;;;7371038;19;21409;-62
2024/01/09 07:50:41;;;;;;;6.30;4.20;;;-4.80;99.90;;;;;;7377630;19;20022;-61
2024/01/09 07:53:07;;;;;;;19.83;10.93;;;-4.70;99.90;;;;;;7373883;19;20043;-62
2024/01/09 07:55:33;;;;;;;7.38;4.18;;;-4.70;99.90;;;;;;7374610;19;20021;-65
2024/01/09 07:58:00;;;;;;;12.52;7.07;;;-4.70;99.90;;;;;;7372972;19;20043;-67
2024/01/09 08:00:26;;;;;;;8.95;4.18;;;-4.80;99.90;;;;;;7374079;19;21281;-61
2024/01/09 08:02:52;;;;;;;7.40;4.70;;;-4.70;99.90;;;;;;7365539;19;20019;-61
2024/01/09 08:05:39;;;;;;;8.52;4.57;;;-4.70;99.90;;;;;;7366830;19;20121;-62
2024/01/09 08:08:05;;;;;;;8.15;4.55;;;-4.70;99.90;;;;;;7374139;19;20023;-61
2024/01/09 08:10:32;;;;;;;6.93;4.32;;;-4.70;99.90;;;;;;7372958;19;20014;-68
2024/01/09 08:12:58;;;;;;;15.52;9.60;;;-4.60;99.90;;;;;;7374373;19;20532;-60
2024/01/09 08:15:25;;;;;;;8.35;4.63;;;-4.60;99.90;;;;;;7372727;19;20018;-60
2024/01/09 08:17:51;;;;;;;9.82;4.90;;;-4.50;99.90;;;;;;7371058;19;20025;-60
2024/01/09 08:20:17;;;;;;;6.28;4.00;;;-4.50;99.90;;;;;;7372994;19;20385;-60
2024/01/09 08:22:44;;;;;;;9.00;4.90;;;-4.20;99.90;;;;;;7376337;19;20078;-60
2024/01/09 08:25:10;;;;;;;6.70;4.18;;;-4.00;99.90;;;;;;7372899;19;20494;-60
2024/01/09 08:27:37;;;;;;;7.65;4.18;;;-4.00;99.90;;;;;;7374881;19;20431;-60
2024/01/09 08:30:04;;;;;;;11.32;7.55;;;-3.90;99.90;;;;;;7372626;19;20379;-66
2024/01/09 08:32:30;;;;;;;7.97;4.32;;;-3.80;99.90;;;;;;7373974;19;20054;-62
2024/01/09 08:34:57;;;;;;;8.75;5.25;;;-3.60;99.90;;;;;;7371754;19;20025;-60
2024/01/09 08:37:23;;;;;;;9.60;4.80;;;-3.50;99.90;;;;;;7372501;19;20573;-61
2024/01/09 08:39:50;;;;;;;6.03;3.63;;;-3.20;99.90;;;;;;7372003;19;20084;-61
2024/01/09 08:42:16;;;;;;;8.40;4.43;;;-2.80;99.90;;;;;;7373127;19;20018;-60
2024/01/09 08:44:43;;;;;;;6.93;3.97;;;-2.50;99.90;;;;;;7368698;19;20014;-60
2024/01/09 08:47:10;;;;;;;7.32;4.32;;;-2.20;99.90;;;;;;7372437;19;20086;-60
2024/01/09 08:49:39;;;;;;;5.60;4.15;;;-2.50;99.90;;;;;;7367100;19;20053;-60
2024/01/09 08:52:05;;;;;;;10.18;6.28;;;-2.20;99.90;;;;;;7371348;19;20020;-66
2024/01/09 08:54:32;;;;;;;6.97;3.58;;;-2.10;99.90;;;;;;7366096;19;20014;-65
2024/01/09 08:56:58;;;;;;;8.27;4.15;;;-1.60;99.90;;;;;;7370042;19;20011;-65
2024/01/09 08:59:24;;;;;;;8.23;3.90;;;-1.90;99.90;;;;;;7368698;19;20021;-65
2024/01/09 09:01:50;;;;;;;7.90;4.30;;;-1.40;99.90;;;;;;7381490;19;20030;-66
2024/01/09 09:04:16;;;;;;;7.65;4.28;;;-0.90;99.90;;;;;;7374802;19;20010;-60
2024/01/09 09:06:43;;;;;;;7.40;4.57;;;-0.90;99.90;;;;;;7378042;19;20022;-65
2024/01/09 09:09:09;;;;;;;9.02;4.53;;;-0.40;99.90;;;;;;7373834;19;20019;-66
2024/01/09 09:11:55;;;;;;;8.57;3.75;;;-0.60;99.90;;;;;;7377298;19;20010;-65
2024/01/09 09:14:21;;;;;;;6.78;3.80;;;-0.30;99.90;;;;;;7375050;19;20014;-64
2024/01/09 09:16:47;;;;;;;8.60;3.55;;;-0.40;99.90;;;;;;7374426;19;20855;-64
2024/01/09 09:19:13;;;;;;;6.40;3.97;;;-0.40;99.90;;;;;;7377566;19;20030;-64
2024/01/09 09:21:40;;;;;;;6.63;4.00;;;-0.30;99.90;;;;;;7375074;19;20440;-59
2024/01/09 09:24:06;;;;;;;6.38;3.80;;;-0.60;99.90;;;;;;7370409;19;20994;-59
2024/01/09 09:26:32;;;;;;;7.03;4.40;;;-0.30;99.90;;;;;;7379896;19;20025;-60
2024/01/09 09:28:59;;;;;;;7.85;3.75;;;-0.20;99.90;;;;;;7373239;19;20023;-59
2024/01/09 09:31:25;;;;;;;7.57;4.10;;;-0.50;99.90;;;;;;7379634;19;20018;-65
2024/01/09 09:33:51;;;;;;;7.55;4.13;;;-0.80;99.90;;;;;;7376380;19;20021;-65
2024/01/09 09:36:17;;;;;;;7.35;3.90;;;-0.90;99.90;;;;;;7374684;19;20037;-64
2024/01/09 09:38:47;;;;;;;6.97;4.13;;;-1.00;99.90;;;;;;7375094;19;20010;-59
2024/01/09 09:41:16;;;;;;;7.28;4.00;;;-0.90;99.90;;;;;;7374590;19;20014;-59
2024/01/09 09:44:07;;;;;;;12.35;6.13;;;-0.70;99.90;;;;;;7376220;19;20024;-59
2024/01/09 09:46:36;;;;;;;7.28;4.07;;;-0.70;99.90;;;;;;7376363;19;20015;-59
2024/01/09 09:49:03;;;;;;;7.57;3.90;;;-0.70;99.90;;;;;;7377749;19;20011;-59
2024/01/09 09:51:29;;;;;;;6.45;4.13;;;-0.50;99.90;;;;;;7376239;19;20789;-59
2024/01/09 09:53:57;;;;;;;5.57;3.42;;;-0.50;99.90;;;;;;7376106;19;20252;-59
2024/01/09 09:56:25;;;;;;;6.68;3.47;;;-0.90;99.90;;;;;;7370840;19;20052;-59
2024/01/09 09:58:51;;;;;;;7.13;4.07;;;-1.10;99.90;;;;;;7375442;19;20010;-59
2024/01/09 10:01:18;;;;;;;13.02;7.88;;;-1.20;99.90;;;;;;7371907;19;20034;-58
2024/01/09 10:04:06;;;;;;;7.43;4.28;;;-1.40;99.90;;;;;;7379907;19;20026;-59
2024/01/09 10:06:36;;;;;;;5.57;3.15;;;-1.30;99.90;;;;;;7373432;19;20018;-60
2024/01/09 10:09:04;;;;;;;5.97;3.67;;;-1.10;99.90;;;;;;7376349;19;20856;-59
2024/01/09 10:11:32;;;;;;;7.75;4.38;;;-1.10;99.90;;;;;;7374638;19;20026;-60
2024/01/09 10:14:00;;;;;;;6.00;4.00;;;-0.90;99.90;;;;;;7375789;19;20058;-59
2024/01/09 10:16:26;;;;;;;11.55;7.13;;;-1.10;99.90;;;;;;7374008;19;20032;-59
2024/01/09 10:18:56;;;;;;;6.78;3.97;;;-1.10;99.90;;;;;;7376480;19;20026;-59
2024/01/09 10:21:25;;;;;;;7.05;4.47;;;-1.10;99.90;;;;;;7372333;19;20041;-59
2024/01/09 10:23:54;;;;;;;6.53;4.22;;;-1.10;99.90;;;;;;7373999;19;20022;-58
2024/01/09 10:26:20;;;;;;;8.27;3.97;;;-1.00;99.90;;;;;;7371155;19;20122;-59
2024/01/09 10:28:46;;;;;;;6.60;3.78;;;-0.80;99.90;;;;;;7371840;19;20018;-59
2024/01/09 10:31:13;;;;;;;8.65;3.72;;;-0.60;99.90;;;;;;7375001;19;20550;-61
2024/01/09 10:33:59;;;;;;;9.55;5.25;;;-0.40;99.90;;;;;;7376447;19;20022;-64
2024/01/09 10:36:27;;;;;;;9.27;4.03;;;0.10;96.30;;;;;;7378575;19;20045;-64
2024/01/09 10:39:12;;;;;;;6.53;4.28;;;0.30;90.30;;;;;;7373501;19;20050;-64
2024/01/09 10:41:39;;;;;;;7.72;4.68;;;0.50;88.00;;;;;;7373181;19;20448;-64
2024/01/09 10:44:05;;;;;;;6.72;3.78;;;0.40;90.30;;;;;;7373214;19;20386;-64
2024/01/09 10:46:35;;;;;;;5.53;3.03;;;0.40;90.00;;;;;;7372863;19;20018;-64
2024/01/09 10:49:22;;;;;;;7.13;4.28;;;0.10;84.90;;;;;;7373931;19;20397;-64
2024/01/09 10:51:49;;;;;;;4.85;3.58;;;0.00;87.20;;;;;;7371184;19;20015;-64
2024/01/09 10:54:18;;;;;;;6.07;3.30;;;0.10;87.30;;;;;;7373909;19;20099;-64
2024/01/09 10:56:45;;;;;;;7.50;5.28;;;0.30;87.90;;;;;;7371875;19;20026;-64
2024/01/09 10:59:14;;;;;;;8.10;3.88;;;0.20;86.50;;;;;;7371970;19;21079;-63
2024/01/09 11:02:02;;;;;;;6.10;3.47;;;0.20;84.20;;;;;;7368990;19;20489;-64
2024/01/09 11:04:28;;;;;;;5.10;3.17;;;0.40;83.40;;;;;;7372552;19;20019;-61
2024/01/09 11:06:55;;;;;;;7.40;4.13;;;1.20;82.30;;;;;;7369425;19;21722;-61
2024/01/09 11:09:23;;;;;;;6.15;3.88;;;2.30;81.70;;;;;;7371472;19;20026;-60
2024/01/09 11:11:49;;;;;;;6.53;4.03;;;2.90;75.70;;;;;;7371627;19;20810;-62
2024/01/09 11:14:17;;;;;;;7.47;4.30;;;3.30;74.50;;;;;;7371443;19;20036;-62
2024/01/09 11:16:47;;;;;;;5.43;3.22;;;3.40;73.20;;;;;;7374873;19;20022;-61
2024/01/09 11:19:14;;;;;;;7.00;3.63;;;2.90;70.10;;;;;;7367977;19;20446;-65
2024/01/09 11:21:40;;;;;;;6.40;3.63;;;3.10;70.90;;;;;;7370522;19;20498;-62
2024/01/09 11:24:08;;;;;;;7.75;3.63;;;2.80;71.30;;;;;;7369882;19;20027;-62
2024/01/09 11:26:38;;;;;;;6.00;2.90;;;2.60;70.60;;;;;;7372144;19;20074;-65
2024/01/09 11:29:04;;;;;;;7.93;4.78;;;2.60;70.00;;;;;;7369686;19;20018;-65
2024/01/09 11:31:33;;;;;;;5.72;3.75;;;2.40;69.10;;;;;;7371290;19;20026;-65
2024/01/09 11:34:02;;;;;;;8.57;5.57;;;2.30;68.30;;;;;;7370142;19;20022;-66
2024/01/09 11:36:37;;;;;;;8.88;5.50;;;2.10;68.00;;;;;;7374500;19;20022;-65
2024/01/09 11:39:05;;;;;;;5.80;3.47;;;2.10;69.30;;;;;;7369890;19;20074;-66
2024/01/09 11:41:34;;;;;;;6.93;3.25;;;1.80;69.00;;;;;;7371175;19;20653;-66
2024/01/09 11:44:05;;;;;;;6.90;4.60;;;1.50;69.10;;;;;;7371203;19;20010;-66
2024/01/09 11:46:37;;;;;;;6.23;4.17;;;1.80;70.80;;;;;;7368993;19;20462;-63
2024/01/09 11:49:24;;;;;;;5.80;3.50;;;2.00;70.00;;;;;;7369669;19;20275;-64
2024/01/09 11:51:50;;;;;;;7.22;3.90;;;2.10;69.10;;;;;;7373588;19;20029;-64
2024/01/09 11:54:17;;;;;;;6.78;4.18;;;2.70;69.00;;;;;;7368693;19;20007;-64
2024/01/09 11:56:44;;;;;;;5.85;3.72;;;3.20;68.60;;;;;;7376704;19;20026;-63
2024/01/09 11:59:10;;;;;;;5.07;3.90;;;3.80;66.80;;;;;;7363278;19;20010;-63
2024/01/09 12:01:36;;;;;;;6.57;3.85;;;4.00;66.80;;;;;;7372370;19;20653;-67
2024/01/09 12:04:02;;;;;;;8.27;5.10;;;4.00;64.50;;;;;;7372973;19;20018;-67
2024/01/09 12:06:29;;;;;;;8.30;4.57;;;4.20;64.90;;;;;;7373577;19;20010;-66
2024/01/09 12:08:55;;;;;;;10.10;5.75;;;4.80;65.40;;;;;;7371348;19;20689;-67
2024/01/09 12:11:21;;;;;;;6.78;3.50;;;4.90;63.50;;;;;;7373406;19;20022;-67
2024/01/09 12:13:48;;;;;;;5.05;3.03;;;5.20;62.00;;;;;;7372719;19;20025;-67
2024/01/09 12:16:19;;;;;;;8.52;5.47;;;5.70;61.30;;;;;;7376495;19;20014;-67
2024/01/09 12:18:54;;;;;;;6.63;3.83;;;6.00;60.50;;;;;;7370848;19;20781;-68
2024/01/09 12:21:24;;;;;;;8.00;5.78;;;6.30;60.70;;;;;;7374139;19;20046;-68
2024/01/09 12:24:01;;;;;;;7.15;3.38;;;6.30;58.40;;;;;;7370966;19;20010;-68
2024/01/09 12:26:29;;;;;;;5.50;3.65;;;6.50;56.60;;;;;;7372007;19;20501;-69
2024/01/09 12:28:56;;;;;;;6.57;3.75;;;6.50;57.20;;;;;;7365014;19;20027;-69
2024/01/09 12:31:28;;;;;;;8.60;3.63;;;6.90;57.60;;;;;;7376087;19;20006;-68
2024/01/09 12:33:54;;;;;;;6.47;3.28;;;6.90;56.10;;;;;;7371421;19;20030;-69
2024/01/09 12:36:23;;;;;;;5.57;3.47;;;6.90;54.20;;;;;;7386203;19;20015;-71
2024/01/09 12:38:51;;;;;;;6.47;3.10;;;7.10;55.10;;;;;;7379009;19;20015;-72
2024/01/09 12:41:39;;;;;;;13.50;8.68;;;6.90;54.30;;;;;;7381735;19;20014;-72
2024/01/09 12:44:11;;;;;;;6.35;3.40;;;6.90;53.30;;;;;;7382033;19;20015;-72
2024/01/09 12:46:40;;;;;;;5.63;3.72;;;6.70;53.20;;;;;;7381016;19;20674;-72
2024/01/09 12:49:07;;;;;;;7.05;4.38;;;6.20;52.70;;;;;;7385906;19;20026;-72
2024/01/09 12:51:35;;;;;;;8.25;5.72;;;5.50;52.80;;;;;;7384699;19;20017;-71